sensor_id;sensor_type;location;lat;lon;timestamp;P1;durP1;ratioP1;P2;durP2;ratioP2
10142;SDS011;5112;54.088;13.446;2023-08-31T00:08:25;3.73;;;2.50;;
10142;SDS011;5112;54.088;13.446;2023-08-31T00:18:28;4.07;;;2.80;;
10142;SDS011;5112;54.088;13.446;2023-08-31T00:28:30;2.50;;;2.30;;
10142;SDS011;5112;54.088;13.446;2023-08-31T00:38:33;3.17;;;2.87;;
10142;SDS011;5112;54.088;13.446;2023-08-31T00:48:36;4.60;;;3.57;;
10142;SDS011;5112;54.088;13.446;2023-08-31T00:58:39;3.07;;;2.87;;
10142;SDS011;5112;54.088;13.446;2023-08-31T01:08:47;3.77;;;3.47;;
10142;SDS011;5112;54.088;13.446;2023-08-31T01:18:56;3.93;;;2.97;;
10142;SDS011;5112;54.088;13.446;2023-08-31T01:29:00;5.93;;;3.20;;
10142;SDS011;5112;54.088;13.446;2023-08-31T01:39:02;4.30;;;3.73;;
10142;SDS011;5112;54.088;13.446;2023-08-31T01:49:11;4.10;;;3.80;;
10142;SDS011;5112;54.088;13.446;2023-08-31T01:59:12;4.27;;;3.93;;
10142;SDS011;5112;54.088;13.446;2023-08-31T02:09:15;3.63;;;3.33;;
10142;SDS011;5112;54.088;13.446;2023-08-31T02:19:17;4.07;;;3.73;;
10142;SDS011;5112;54.088;13.446;2023-08-31T02:29:20;4.20;;;3.80;;
10142;SDS011;5112;54.088;13.446;2023-08-31T02:39:23;4.57;;;4.17;;
10142;SDS011;5112;54.088;13.446;2023-08-31T02:49:26;4.40;;;4.00;;
10142;SDS011;5112;54.088;13.446;2023-08-31T02:59:28;4.63;;;4.23;;
10142;SDS011;5112;54.088;13.446;2023-08-31T03:09:31;4.80;;;4.30;;
10142;SDS011;5112;54.088;13.446;2023-08-31T03:19:33;4.97;;;4.57;;
10142;SDS011;5112;54.088;13.446;2023-08-31T03:29:35;4.77;;;4.37;;
10142;SDS011;5112;54.088;13.446;2023-08-31T03:39:37;5.50;;;5.00;;
10142;SDS011;5112;54.088;13.446;2023-08-31T03:49:42;5.77;;;5.30;;
10142;SDS011;5112;54.088;13.446;2023-08-31T03:59:44;5.27;;;4.87;;
10142;SDS011;5112;54.088;13.446;2023-08-31T04:09:47;5.30;;;4.90;;
10142;SDS011;5112;54.088;13.446;2023-08-31T04:19:49;5.63;;;5.17;;
10142;SDS011;5112;54.088;13.446;2023-08-31T04:29:52;5.27;;;4.80;;
10142;SDS011;5112;54.088;13.446;2023-08-31T04:39:54;5.10;;;4.70;;
10142;SDS011;5112;54.088;13.446;2023-08-31T04:49:57;5.30;;;4.90;;
10142;SDS011;5112;54.088;13.446;2023-08-31T04:59:59;5.07;;;4.60;;
10142;SDS011;5112;54.088;13.446;2023-08-31T05:10:02;4.90;;;4.50;;
10142;SDS011;5112;54.088;13.446;2023-08-31T05:20:05;5.07;;;4.67;;
10142;SDS011;5112;54.088;13.446;2023-08-31T05:30:11;5.83;;;4.77;;
10142;SDS011;5112;54.088;13.446;2023-08-31T05:40:13;6.53;;;5.93;;
10142;SDS011;5112;54.088;13.446;2023-08-31T05:50:18;5.97;;;5.47;;
10142;SDS011;5112;54.088;13.446;2023-08-31T06:00:20;7.90;;;7.10;;
10142;SDS011;5112;54.088;13.446;2023-08-31T06:10:23;9.53;;;8.53;;
10142;SDS011;5112;54.088;13.446;2023-08-31T06:20:24;11.63;;;10.27;;
10142;SDS011;5112;54.088;13.446;2023-08-31T06:30:27;12.83;;;11.53;;
10142;SDS011;5112;54.088;13.446;2023-08-31T06:40:29;12.80;;;11.63;;
10142;SDS011;5112;54.088;13.446;2023-08-31T06:50:34;14.57;;;13.17;;
10142;SDS011;5112;54.088;13.446;2023-08-31T07:00:36;16.37;;;14.80;;
10142;SDS011;5112;54.088;13.446;2023-08-31T07:10:39;17.43;;;14.90;;
10142;SDS011;5112;54.088;13.446;2023-08-31T07:20:41;14.03;;;12.63;;
10142;SDS011;5112;54.088;13.446;2023-08-31T07:30:44;15.47;;;13.97;;
10142;SDS011;5112;54.088;13.446;2023-08-31T07:40:45;14.13;;;12.83;;
10142;SDS011;5112;54.088;13.446;2023-08-31T07:50:48;13.73;;;12.30;;
10142;SDS011;5112;54.088;13.446;2023-08-31T08:00:52;13.43;;;12.13;;
10142;SDS011;5112;54.088;13.446;2023-08-31T08:10:55;12.97;;;11.60;;
10142;SDS011;5112;54.088;13.446;2023-08-31T08:20:57;11.30;;;10.20;;
10142;SDS011;5112;54.088;13.446;2023-08-31T08:31:01;10.23;;;9.33;;
10142;SDS011;5112;54.088;13.446;2023-08-31T08:41:04;8.50;;;7.70;;
10142;SDS011;5112;54.088;13.446;2023-08-31T08:51:07;7.87;;;7.07;;
10142;SDS011;5112;54.088;13.446;2023-08-31T09:01:11;6.90;;;6.30;;
10142;SDS011;5112;54.088;13.446;2023-08-31T09:11:20;7.37;;;6.10;;
10142;SDS011;5112;54.088;13.446;2023-08-31T09:21:22;5.07;;;4.67;;
10142;SDS011;5112;54.088;13.446;2023-08-31T09:31:37;5.10;;;4.57;;
10142;SDS011;5112;54.088;13.446;2023-08-31T09:41:51;4.83;;;4.43;;
10142;SDS011;5112;54.088;13.446;2023-08-31T09:51:55;5.27;;;4.10;;
10142;SDS011;5112;54.088;13.446;2023-08-31T10:02:00;3.37;;;3.17;;
10142;SDS011;5112;54.088;13.446;2023-08-31T10:12:04;3.67;;;3.03;;
10142;SDS011;5112;54.088;13.446;2023-08-31T10:22:08;2.83;;;2.63;;
10142;SDS011;5112;54.088;13.446;2023-08-31T10:32:11;4.00;;;2.57;;
10142;SDS011;5112;54.088;13.446;2023-08-31T10:42:18;3.87;;;2.40;;
10142;SDS011;5112;54.088;13.446;2023-08-31T10:52:26;3.90;;;2.90;;
10142;SDS011;5112;54.088;13.446;2023-08-31T11:02:28;4.60;;;2.60;;
10142;SDS011;5112;54.088;13.446;2023-08-31T11:12:33;3.43;;;2.10;;
10142;SDS011;5112;54.088;13.446;2023-08-31T11:22:37;4.00;;;3.67;;
10142;SDS011;5112;54.088;13.446;2023-08-31T11:32:45;1.50;;;1.40;;
10142;SDS011;5112;54.088;13.446;2023-08-31T11:42:47;1.70;;;1.60;;
10142;SDS011;5112;54.088;13.446;2023-08-31T11:52:51;1.93;;;1.50;;
10142;SDS011;5112;54.088;13.446;2023-08-31T12:02:55;1.40;;;1.30;;
10142;SDS011;5112;54.088;13.446;2023-08-31T12:13:08;1.93;;;1.30;;
10142;SDS011;5112;54.088;13.446;2023-08-31T12:23:11;1.50;;;1.20;;
10142;SDS011;5112;54.088;13.446;2023-08-31T12:33:16;3.03;;;1.30;;
10142;SDS011;5112;54.088;13.446;2023-08-31T12:43:18;2.53;;;0.97;;
10142;SDS011;5112;54.088;13.446;2023-08-31T12:53:22;2.57;;;1.23;;
10142;SDS011;5112;54.088;13.446;2023-08-31T13:03:23;1.20;;;0.93;;
10142;SDS011;5112;54.088;13.446;2023-08-31T13:13:26;2.87;;;1.03;;
10142;SDS011;5112;54.088;13.446;2023-08-31T13:23:28;3.57;;;1.40;;
10142;SDS011;5112;54.088;13.446;2023-08-31T13:33:31;2.80;;;1.37;;
10142;SDS011;5112;54.088;13.446;2023-08-31T13:43:32;1.00;;;0.87;;
10142;SDS011;5112;54.088;13.446;2023-08-31T13:53:35;2.70;;;0.97;;
10142;SDS011;5112;54.088;13.446;2023-08-31T14:03:37;0.80;;;0.80;;
10142;SDS011;5112;54.088;13.446;2023-08-31T14:13:42;2.80;;;1.27;;
10142;SDS011;5112;54.088;13.446;2023-08-31T14:23:46;1.13;;;0.87;;
10142;SDS011;5112;54.088;13.446;2023-08-31T14:33:49;1.00;;;0.90;;
10142;SDS011;5112;54.088;13.446;2023-08-31T14:43:52;1.67;;;0.80;;
10142;SDS011;5112;54.088;13.446;2023-08-31T14:53:55;2.57;;;1.00;;
10142;SDS011;5112;54.088;13.446;2023-08-31T15:03:56;1.87;;;1.53;;
10142;SDS011;5112;54.088;13.446;2023-08-31T15:13:59;0.97;;;0.80;;
10142;SDS011;5112;54.088;13.446;2023-08-31T15:24:02;0.70;;;0.70;;
10142;SDS011;5112;54.088;13.446;2023-08-31T15:34:05;2.00;;;0.63;;
10142;SDS011;5112;54.088;13.446;2023-08-31T15:44:07;1.37;;;0.83;;
10142;SDS011;5112;54.088;13.446;2023-08-31T15:54:09;0.50;;;0.50;;
10142;SDS011;5112;54.088;13.446;2023-08-31T16:04:11;0.47;;;0.47;;
10142;SDS011;5112;54.088;13.446;2023-08-31T16:14:14;1.70;;;0.90;;
10142;SDS011;5112;54.088;13.446;2023-08-31T16:24:16;1.70;;;1.20;;
10142;SDS011;5112;54.088;13.446;2023-08-31T16:34:19;1.03;;;0.60;;
10142;SDS011;5112;54.088;13.446;2023-08-31T16:44:20;0.60;;;0.60;;
10142;SDS011;5112;54.088;13.446;2023-08-31T16:54:25;1.40;;;0.60;;
10142;SDS011;5112;54.088;13.446;2023-08-31T17:04:26;0.53;;;0.53;;
10142;SDS011;5112;54.088;13.446;2023-08-31T17:14:29;1.13;;;0.60;;
10142;SDS011;5112;54.088;13.446;2023-08-31T17:24:32;0.80;;;0.80;;
10142;SDS011;5112;54.088;13.446;2023-08-31T17:34:35;2.00;;;0.90;;
10142;SDS011;5112;54.088;13.446;2023-08-31T17:44:37;0.77;;;0.77;;
10142;SDS011;5112;54.088;13.446;2023-08-31T17:54:40;0.87;;;0.80;;
10142;SDS011;5112;54.088;13.446;2023-08-31T18:04:42;1.10;;;0.87;;
10142;SDS011;5112;54.088;13.446;2023-08-31T18:14:45;0.87;;;0.87;;
10142;SDS011;5112;54.088;13.446;2023-08-31T18:24:46;1.50;;;1.40;;
10142;SDS011;5112;54.088;13.446;2023-08-31T18:34:49;1.90;;;1.40;;
10142;SDS011;5112;54.088;13.446;2023-08-31T18:44:53;2.00;;;1.90;;
10142;SDS011;5112;54.088;13.446;2023-08-31T18:54:56;1.90;;;1.80;;
10142;SDS011;5112;54.088;13.446;2023-08-31T19:04:58;1.93;;;1.83;;
10142;SDS011;5112;54.088;13.446;2023-08-31T19:15:01;3.07;;;2.23;;
10142;SDS011;5112;54.088;13.446;2023-08-31T19:25:03;1.90;;;1.80;;
10142;SDS011;5112;54.088;13.446;2023-08-31T19:35:07;2.20;;;2.10;;
10142;SDS011;5112;54.088;13.446;2023-08-31T19:45:09;2.70;;;2.50;;
10142;SDS011;5112;54.088;13.446;2023-08-31T19:55:12;2.60;;;2.40;;
10142;SDS011;5112;54.088;13.446;2023-08-31T20:05:14;2.87;;;2.67;;
10142;SDS011;5112;54.088;13.446;2023-08-31T20:15:18;3.83;;;2.73;;
10142;SDS011;5112;54.088;13.446;2023-08-31T20:25:20;2.10;;;2.00;;
10142;SDS011;5112;54.088;13.446;2023-08-31T20:35:23;2.50;;;2.30;;
10142;SDS011;5112;54.088;13.446;2023-08-31T20:45:25;2.83;;;2.10;;
10142;SDS011;5112;54.088;13.446;2023-08-31T20:55:29;2.67;;;1.93;;
10142;SDS011;5112;54.088;13.446;2023-08-31T21:05:30;4.17;;;1.73;;
10142;SDS011;5112;54.088;13.446;2023-08-31T21:15:33;2.00;;;1.90;;
10142;SDS011;5112;54.088;13.446;2023-08-31T21:25:35;1.93;;;1.53;;
10142;SDS011;5112;54.088;13.446;2023-08-31T21:35:39;2.00;;;1.90;;
10142;SDS011;5112;54.088;13.446;2023-08-31T21:45:43;1.57;;;1.47;;
10142;SDS011;5112;54.088;13.446;2023-08-31T21:55:46;2.80;;;1.50;;
10142;SDS011;5112;54.088;13.446;2023-08-31T22:05:48;1.80;;;1.70;;
10142;SDS011;5112;54.088;13.446;2023-08-31T22:15:51;3.43;;;1.70;;
10142;SDS011;5112;54.088;13.446;2023-08-31T22:25:52;2.20;;;1.80;;
10142;SDS011;5112;54.088;13.446;2023-08-31T22:35:56;1.70;;;1.60;;
10142;SDS011;5112;54.088;13.446;2023-08-31T22:45:57;1.70;;;1.60;;
10142;SDS011;5112;54.088;13.446;2023-08-31T22:56:01;1.53;;;1.43;;
10142;SDS011;5112;54.088;13.446;2023-08-31T23:06:04;1.80;;;1.70;;
10142;SDS011;5112;54.088;13.446;2023-08-31T23:16:07;1.93;;;1.60;;
10142;SDS011;5112;54.088;13.446;2023-08-31T23:26:09;2.03;;;1.93;;
10142;SDS011;5112;54.088;13.446;2023-08-31T23:36:12;2.97;;;1.90;;
10142;SDS011;5112;54.088;13.446;2023-08-31T23:46:14;3.03;;;2.20;;
10142;SDS011;5112;54.088;13.446;2023-08-31T23:56:18;4.70;;;2.53;;
